createdAt,value
2022-08-16T00:01:24.744Z,22.04
2022-08-16T00:03:55.174Z,22.06
2022-08-16T00:06:23.374Z,22.04
2022-08-16T00:08:52.394Z,22.01
2022-08-16T00:11:21.354Z,21.97
2022-08-16T00:13:53.757Z,21.94
2022-08-16T00:17:05.885Z,21.98
2022-08-16T00:19:15.847Z,21.95
2022-08-16T00:21:44.865Z,21.84
2022-08-16T00:24:13.868Z,21.80
2022-08-16T00:27:01.268Z,21.77
2022-08-16T00:29:30.472Z,21.76
2022-08-16T00:32:01.144Z,21.65
2022-08-16T00:34:43.229Z,21.62
2022-08-16T00:37:17.109Z,21.64
2022-08-16T00:39:57.566Z,21.70
2022-08-16T00:42:32.331Z,21.59
2022-08-16T00:45:09.684Z,21.56
2022-08-16T00:47:49.519Z,21.56
2022-08-16T00:50:36.346Z,21.51
2022-08-16T00:53:07.780Z,21.50
2022-08-16T00:55:40.207Z,21.55
2022-08-16T00:58:12.976Z,21.64
2022-08-16T01:00:54.121Z,21.70
2022-08-16T01:03:31.588Z,21.66
2022-08-16T01:06:39.541Z,21.62
2022-08-16T01:08:56.100Z,21.48
2022-08-16T01:11:30.632Z,21.33
2022-08-16T01:14:11.105Z,21.35
2022-08-16T01:16:43.123Z,21.23
2022-08-16T01:19:23.203Z,21.21
2022-08-16T01:21:54.697Z,21.21
2022-08-16T01:24:51.430Z,21.16
2022-08-16T01:27:19.573Z,21.24
2022-08-16T01:29:59.789Z,21.16
2022-08-16T01:32:34.158Z,21.08
2022-08-16T01:35:08.459Z,21.02
2022-08-16T01:37:54.192Z,20.92
2022-08-16T01:40:29.749Z,20.86
2022-08-16T01:42:58.966Z,20.83
2022-08-16T01:45:40.538Z,20.78
2022-08-16T01:48:19.719Z,20.74
2022-08-16T01:51:09.519Z,20.72
2022-08-16T01:53:41.323Z,20.65
2022-08-16T01:56:27.724Z,20.68
2022-08-16T01:58:58.932Z,20.78
2022-08-16T02:01:29.465Z,20.74
2022-08-16T02:04:10.886Z,20.64
2022-08-16T02:06:46.656Z,20.59
2022-08-16T02:09:23.917Z,20.49
2022-08-16T02:11:59.495Z,20.41
2022-08-16T02:14:49.325Z,20.45
2022-08-16T02:17:19.321Z,20.47
2022-08-16T02:19:58.922Z,20.46
2022-08-16T02:22:34.687Z,20.49
2022-08-16T02:25:14.883Z,20.39
2022-08-16T02:27:50.677Z,20.33
2022-08-16T02:30:37.246Z,20.31
2022-08-16T02:33:12.934Z,20.24
2022-08-16T02:35:53.783Z,20.12
2022-08-16T02:38:26.982Z,20.12
2022-08-16T02:40:56.639Z,20.14
2022-08-16T02:43:27.584Z,20.14
2022-08-16T02:45:59.247Z,20.10
2022-08-16T02:48:31.192Z,20.00
2022-08-16T02:51:10.551Z,19.95
2022-08-16T02:53:46.840Z,19.92
2022-08-16T02:56:17.956Z,19.91
2022-08-16T02:58:50.175Z,19.94
2022-08-16T03:01:24.096Z,20.02
2022-08-16T03:04:24.736Z,20.03
2022-08-16T03:06:43.426Z,20.07
2022-08-16T03:09:25.091Z,20.03
2022-08-16T03:11:55.169Z,20.06
2022-08-16T03:14:24.516Z,20.04
2022-08-16T03:17:00.213Z,20.11
2022-08-16T03:19:48.446Z,20.11
2022-08-16T03:22:28.144Z,20.15
2022-08-16T03:25:02.186Z,20.13
2022-08-16T03:27:33.786Z,20.13
2022-08-16T03:30:16.082Z,20.08
2022-08-16T03:32:51.615Z,20.06
2022-08-16T03:35:24.076Z,20.10
2022-08-16T03:38:33.009Z,20.07
2022-08-16T03:40:57.775Z,20.05
2022-08-16T03:43:51.603Z,20.11
2022-08-16T03:46:44.424Z,20.14
2022-08-16T03:49:10.826Z,20.18
2022-08-16T03:51:42.885Z,20.15
2022-08-16T03:54:15.915Z,20.21
2022-08-16T03:56:57.219Z,20.21
2022-08-16T03:59:30.292Z,20.27
2022-08-16T04:02:22.393Z,20.30
2022-08-16T04:04:54.149Z,20.29
2022-08-16T04:07:23.243Z,20.35
2022-08-16T04:09:53.739Z,20.36
2022-08-16T04:12:54.778Z,20.43
2022-08-16T04:15:16.860Z,20.45
2022-08-16T04:17:56.197Z,20.48
2022-08-16T04:20:31.317Z,20.58
2022-08-16T04:23:04.691Z,20.62
2022-08-16T04:25:35.074Z,20.67
2022-08-16T04:28:54.472Z,20.65
2022-08-16T04:30:53.131Z,20.68
2022-08-16T04:33:27.077Z,20.70
2022-08-16T04:35:58.359Z,20.71
2022-08-16T04:38:27.593Z,20.78
2022-08-16T04:40:58.525Z,20.87
2022-08-16T04:43:26.957Z,20.95
2022-08-16T04:46:00.332Z,21.09
2022-08-16T04:48:34.267Z,21.44
2022-08-16T04:51:12.008Z,21.64
2022-08-16T04:53:45.884Z,21.78
2022-08-16T04:56:16.505Z,21.91
2022-08-16T04:58:46.822Z,22.08
2022-08-16T05:01:19.074Z,22.23
2022-08-16T05:03:59.716Z,22.40
2022-08-16T05:06:45.548Z,22.57
2022-08-16T05:09:39.419Z,22.75
2022-08-16T05:12:18.189Z,22.96
2022-08-16T05:15:02.414Z,23.18
2022-08-16T05:17:34.566Z,23.29
2022-08-16T05:20:38.858Z,23.41
2022-08-16T05:22:59.928Z,23.55
2022-08-16T05:25:41.257Z,23.60
2022-08-16T05:28:18.689Z,23.68
2022-08-16T05:30:52.606Z,23.88
2022-08-16T05:33:25.903Z,23.99
2022-08-16T05:35:57.915Z,23.99
2022-08-16T05:38:38.802Z,23.99
2022-08-16T05:41:11.037Z,24.09
2022-08-16T05:43:46.321Z,24.09
2022-08-16T05:46:30.502Z,24.10
2022-08-16T05:49:09.024Z,24.04
2022-08-16T05:51:41.714Z,24.06
2022-08-16T05:54:17.567Z,24.09
2022-08-16T05:56:57.059Z,24.24
2022-08-16T05:59:27.382Z,24.19
2022-08-16T06:01:56.591Z,24.42
2022-08-16T06:04:36.570Z,24.75
2022-08-16T06:07:24.587Z,24.94
2022-08-16T06:10:32.301Z,24.96
2022-08-16T06:13:02.622Z,25.19
2022-08-16T06:15:30.943Z,25.44
2022-08-16T06:18:00.595Z,25.59
2022-08-16T06:20:35.895Z,25.72
2022-08-16T06:23:18.231Z,25.73
2022-08-16T06:25:57.192Z,25.95
2022-08-16T06:28:35.905Z,26.09
2022-08-16T06:31:06.874Z,26.29
2022-08-16T06:33:42.373Z,26.51
2022-08-16T06:36:14.730Z,26.71
2022-08-16T06:38:55.673Z,26.81
2022-08-16T06:41:43.217Z,27.01
2022-08-16T06:44:24.385Z,27.01
2022-08-16T06:46:57.157Z,27.19
2022-08-16T06:49:25.283Z,27.13
2022-08-16T06:51:53.138Z,27.24
2022-08-16T06:54:34.673Z,27.69
2022-08-16T06:57:03.214Z,27.70
2022-08-16T06:59:52.101Z,27.98
2022-08-16T07:02:33.400Z,28.03
2022-08-16T07:05:03.608Z,28.45
2022-08-16T07:07:50.873Z,28.82
2022-08-16T07:10:26.810Z,28.92
2022-08-16T07:13:04.540Z,29.11
2022-08-16T07:15:50.062Z,29.71
2022-08-16T07:18:21.790Z,30.04
2022-08-16T07:20:53.960Z,30.26
2022-08-16T07:23:38.947Z,29.84
2022-08-16T07:26:24.374Z,29.77
2022-08-16T07:28:53.352Z,29.67
2022-08-16T07:31:21.999Z,29.61
2022-08-16T07:33:53.743Z,29.83
2022-08-16T07:36:34.280Z,30.18
2022-08-16T07:39:03.808Z,30.86
2022-08-16T07:41:36.433Z,31.53
2022-08-16T07:44:16.610Z,33.15
2022-08-16T07:46:47.868Z,33.22
2022-08-16T07:49:24.731Z,34.60
2022-08-16T07:51:54.386Z,35.04
2022-08-16T07:54:32.232Z,36.67
2022-08-16T07:57:11.296Z,37.97
2022-08-16T07:59:45.598Z,38.10
2022-08-16T08:02:19.665Z,38.98
2022-08-16T08:04:50.206Z,40.23
2022-08-16T08:07:18.453Z,41.32
2022-08-16T08:09:50.156Z,42.42
2022-08-16T08:12:32.336Z,42.85
2022-08-16T08:15:09.604Z,43.97
2022-08-16T08:17:42.783Z,42.65
2022-08-16T08:20:20.644Z,41.29
2022-08-16T08:23:01.044Z,40.83
2022-08-16T08:25:53.604Z,38.93
2022-08-16T08:28:25.628Z,37.66
2022-08-16T08:31:02.799Z,37.00
2022-08-16T08:33:35.729Z,36.11
2022-08-16T08:36:08.063Z,35.37
2022-08-16T08:38:45.009Z,34.75
2022-08-16T08:41:18.584Z,33.96
2022-08-16T08:43:50.789Z,33.84
2022-08-16T08:46:22.014Z,33.27
2022-08-16T08:48:59.843Z,32.78
2022-08-16T08:51:31.861Z,32.32
2022-08-16T08:54:07.015Z,32.00
2022-08-16T08:56:45.845Z,31.35
2022-08-16T08:59:40.906Z,31.21
2022-08-16T09:02:14.797Z,31.07
2022-08-16T09:04:52.237Z,30.77
2022-08-16T09:07:23.806Z,30.57
2022-08-16T09:10:06.826Z,30.60
2022-08-16T09:12:46.580Z,30.89
2022-08-16T09:15:23.830Z,30.93
2022-08-16T09:17:55.654Z,30.66
2022-08-16T09:20:29.408Z,30.60
2022-08-16T09:22:59.081Z,30.49
2022-08-16T09:25:33.804Z,30.39
2022-08-16T09:28:09.377Z,30.49
2022-08-16T09:30:51.204Z,30.40
2022-08-16T09:33:20.029Z,29.95
2022-08-16T09:35:53.075Z,29.73
2022-08-16T09:38:31.803Z,29.75
2022-08-16T09:41:06.088Z,29.78
2022-08-16T09:43:59.554Z,29.50
2022-08-16T09:46:45.970Z,29.96
2022-08-16T09:49:20.038Z,30.16
2022-08-16T09:51:55.622Z,30.32
2022-08-16T09:54:32.566Z,30.58
2022-08-16T09:57:01.432Z,31.13
2022-08-16T09:59:30.739Z,31.41
2022-08-16T10:01:59.758Z,31.24
2022-08-16T10:04:31.600Z,31.02
2022-08-16T10:07:15.098Z,30.72
2022-08-16T10:09:53.886Z,30.87
2022-08-16T10:12:44.454Z,30.58
2022-08-16T10:15:21.085Z,30.14
2022-08-16T10:18:01.187Z,30.00
2022-08-16T10:20:34.892Z,29.78
2022-08-16T10:23:17.224Z,29.52
2022-08-16T10:27:16.723Z,29.49
2022-08-16T10:28:39.415Z,28.96
2022-08-16T10:31:11.715Z,29.01
2022-08-16T10:33:42.797Z,29.05
2022-08-16T10:36:38.119Z,29.30
2022-08-16T10:39:03.543Z,29.30
2022-08-16T10:41:33.448Z,29.64
2022-08-16T10:44:01.730Z,29.45
2022-08-16T10:46:40.097Z,29.53
2022-08-16T10:49:12.458Z,29.62
2022-08-16T10:52:02.587Z,29.54
2022-08-16T10:54:32.220Z,29.37
2022-08-16T10:57:04.353Z,29.55
2022-08-16T10:59:44.159Z,29.36
2022-08-16T11:02:58.779Z,29.21
2022-08-16T11:05:14.070Z,29.08
2022-08-16T11:07:55.198Z,29.02
2022-08-16T11:13:57.523Z,28.72
2022-08-16T11:16:26.295Z,28.42
2022-08-16T11:19:05.971Z,28.21
2022-08-16T11:24:40.139Z,27.97
2022-08-16T11:27:19.673Z,28.03
2022-08-16T11:29:52.890Z,27.87
2022-08-16T11:32:29.863Z,27.76
2022-08-16T11:35:10.952Z,27.80
2022-08-16T11:40:40.786Z,27.40
2022-08-16T11:43:17.100Z,27.34
2022-08-16T11:45:53.808Z,27.22
2022-08-16T11:48:24.862Z,27.07
2022-08-16T11:50:54.082Z,26.86
2022-08-16T11:53:24.331Z,26.72
2022-08-16T11:55:56.062Z,26.62
2022-08-16T11:58:26.606Z,26.54
2022-08-16T12:00:57.845Z,26.56
2022-08-16T12:03:31.089Z,26.39
2022-08-16T12:06:24.929Z,26.38
2022-08-16T12:09:00.871Z,26.55
2022-08-16T12:11:31.717Z,26.59
2022-08-16T12:14:04.998Z,26.68
2022-08-16T12:16:35.677Z,26.71
2022-08-16T12:19:06.921Z,26.80
2022-08-16T12:21:59.144Z,27.20
2022-08-16T12:24:28.407Z,27.12
2022-08-16T12:26:56.944Z,27.35
2022-08-16T12:29:25.780Z,27.45
2022-08-16T12:32:00.949Z,27.49
2022-08-16T12:34:50.887Z,27.87
2022-08-16T12:37:24.378Z,28.04
2022-08-16T12:39:56.188Z,27.88
2022-08-16T12:42:34.535Z,27.94
2022-08-16T12:45:11.313Z,28.11
2022-08-16T12:48:29.404Z,28.45
2022-08-16T12:50:49.346Z,28.65
2022-08-16T12:53:20.634Z,28.74
2022-08-16T12:55:49.524Z,28.67
2022-08-16T12:58:47.431Z,28.93
2022-08-16T13:01:07.024Z,28.69
2022-08-16T13:03:40.542Z,28.75
2022-08-16T13:06:09.401Z,28.87
2022-08-16T13:08:41.358Z,28.95
2022-08-16T13:11:14.379Z,29.00
2022-08-16T13:13:45.536Z,29.24
2022-08-16T13:16:20.407Z,29.43
2022-08-16T13:18:54.583Z,29.27
2022-08-16T13:21:23.633Z,29.17
2022-08-16T13:23:55.522Z,28.89
2022-08-16T13:26:26.489Z,28.77
2022-08-16T13:28:54.965Z,28.68
2022-08-16T13:31:24.105Z,28.55
2022-08-16T13:33:54.545Z,28.65
2022-08-16T13:36:47.940Z,28.70
2022-08-16T13:39:15.303Z,28.74
2022-08-16T13:41:43.529Z,28.86
2022-08-16T13:44:21.762Z,28.80
2022-08-16T13:46:50.384Z,28.60
2022-08-16T13:49:18.678Z,28.56
2022-08-16T13:51:48.918Z,28.54
2022-08-16T13:56:46.053Z,28.66
2022-08-16T13:59:20.131Z,28.65
2022-08-16T14:02:05.349Z,28.74
2022-08-16T14:04:38.125Z,28.69
2022-08-16T14:07:11.474Z,28.69
2022-08-16T14:09:41.049Z,28.62
2022-08-16T14:12:23.261Z,28.42
2022-08-16T14:14:54.508Z,28.44
2022-08-16T14:17:25.545Z,28.56
2022-08-16T14:19:53.853Z,28.65
2022-08-16T14:22:35.761Z,28.76
2022-08-16T14:25:10.543Z,28.89
2022-08-16T14:27:42.171Z,28.91
2022-08-16T14:30:15.514Z,28.73
2022-08-16T14:32:49.726Z,28.67
2022-08-16T14:35:29.286Z,28.78
2022-08-16T14:38:05.783Z,28.92
2022-08-16T14:40:34.244Z,28.69
2022-08-16T14:43:07.106Z,28.64
2022-08-16T14:45:36.893Z,28.73
2022-08-16T14:48:04.977Z,28.85
2022-08-16T14:50:33.866Z,28.88
2022-08-16T14:53:06.175Z,28.97
2022-08-16T14:55:36.545Z,28.88
2022-08-16T14:58:05.520Z,28.95
2022-08-16T15:00:36.639Z,29.02
2022-08-16T15:03:09.943Z,28.93
2022-08-16T15:05:40.273Z,28.97
2022-08-16T15:08:10.459Z,29.04
2022-08-16T15:10:44.875Z,29.12
2022-08-16T15:13:14.995Z,29.07
2022-08-16T15:15:43.528Z,29.18
2022-08-16T15:18:13.893Z,29.11
2022-08-16T15:20:54.533Z,29.13
2022-08-16T15:23:25.094Z,29.22
2022-08-16T15:26:03.438Z,29.08
2022-08-16T15:28:33.016Z,28.97
2022-08-16T15:31:03.646Z,28.90
2022-08-16T15:33:35.111Z,28.67
2022-08-16T15:36:05.058Z,28.63
2022-08-16T15:39:03.765Z,28.67
2022-08-16T15:41:39.129Z,28.47
2022-08-16T15:44:15.296Z,28.49
2022-08-16T15:46:56.941Z,28.59
2022-08-16T15:49:37.027Z,28.58
2022-08-16T15:52:20.352Z,28.26
2022-08-16T15:54:55.340Z,28.41
2022-08-16T15:57:25.258Z,28.17
2022-08-16T15:59:56.400Z,28.24
2022-08-16T16:02:40.752Z,28.31
2022-08-16T16:05:10.385Z,28.24
2022-08-16T16:07:55.921Z,28.11
2022-08-16T16:10:29.407Z,28.13
2022-08-16T16:13:00.325Z,28.06
2022-08-16T16:15:33.438Z,27.92
2022-08-16T16:18:05.078Z,27.82
2022-08-16T16:20:39.787Z,27.91
2022-08-16T16:23:11.157Z,27.74
2022-08-16T16:25:43.875Z,27.74
2022-08-16T16:29:04.993Z,27.61
2022-08-16T16:31:06.315Z,27.45
2022-08-16T16:33:36.983Z,27.44
2022-08-16T16:36:07.713Z,27.47
2022-08-16T16:38:36.034Z,27.40
2022-08-16T16:41:10.274Z,27.29
2022-08-16T16:43:41.098Z,27.11
2022-08-16T16:46:32.725Z,27.05
2022-08-16T16:49:03.124Z,26.93
2022-08-16T16:51:40.399Z,26.83
2022-08-16T16:54:13.176Z,26.72
2022-08-16T16:56:49.834Z,26.54
2022-08-16T16:59:20.141Z,26.51
2022-08-16T17:02:00.377Z,26.41
2022-08-16T17:04:38.917Z,26.23
2022-08-16T17:07:10.657Z,26.02
2022-08-16T17:09:41.119Z,25.84
2022-08-16T17:12:14.581Z,25.64
2022-08-16T17:14:55.140Z,25.50
2022-08-16T17:17:23.861Z,25.43
2022-08-16T17:19:52.484Z,25.38
2022-08-16T17:22:24.055Z,25.39
2022-08-16T17:25:01.866Z,25.33
2022-08-16T17:27:32.884Z,25.19
2022-08-16T17:30:18.228Z,25.11
2022-08-16T17:32:50.518Z,25.14
2022-08-16T17:35:34.058Z,25.12
2022-08-16T17:38:07.063Z,25.03
2022-08-16T17:40:47.792Z,25.01
2022-08-16T17:43:44.420Z,24.88
2022-08-16T17:46:41.148Z,24.93
2022-08-16T17:49:03.861Z,24.91
2022-08-16T17:51:34.436Z,24.88
2022-08-16T17:54:03.881Z,24.74
2022-08-16T17:56:32.308Z,24.60
2022-08-16T17:59:01.209Z,24.50
2022-08-16T18:01:30.328Z,24.46
2022-08-16T18:04:07.206Z,24.44
2022-08-16T18:06:38.769Z,24.41
2022-08-16T18:09:09.394Z,24.37
2022-08-16T18:11:41.304Z,24.44
2022-08-16T18:14:12.161Z,24.73
2022-08-16T18:16:41.369Z,24.72
2022-08-16T18:19:11.060Z,24.63
2022-08-16T18:21:59.890Z,24.73
2022-08-16T18:24:28.290Z,24.51
2022-08-16T18:26:56.598Z,24.45
2022-08-16T18:29:45.148Z,24.38
2022-08-16T18:32:14.996Z,24.38
2022-08-16T18:34:50.203Z,24.25
2022-08-16T18:37:18.421Z,24.26
2022-08-16T18:39:46.434Z,24.16
2022-08-16T18:42:15.787Z,24.15
2022-08-16T18:44:44.997Z,24.07
2022-08-16T18:47:13.069Z,24.10
2022-08-16T18:49:40.865Z,24.03
2022-08-16T18:52:13.881Z,23.99
2022-08-16T18:55:01.750Z,23.99
2022-08-16T18:57:39.442Z,23.99
2022-08-16T19:00:11.552Z,23.99
2022-08-16T19:02:57.146Z,23.96
2022-08-16T19:05:31.093Z,23.82
2022-08-16T19:07:59.741Z,23.74
2022-08-16T19:10:28.768Z,23.66
2022-08-16T19:12:57.103Z,23.63
2022-08-16T19:15:28.797Z,23.55
2022-08-16T19:17:57.214Z,23.64
2022-08-16T19:20:27.571Z,23.60
2022-08-16T19:23:04.948Z,23.62
2022-08-16T19:25:47.351Z,23.64
2022-08-16T19:28:51.580Z,23.61
2022-08-16T19:31:24.928Z,23.65
2022-08-16T19:33:55.783Z,23.57
2022-08-16T19:36:36.746Z,23.51
2022-08-16T19:39:12.238Z,23.49
2022-08-16T19:41:43.974Z,23.39
2022-08-16T19:44:12.757Z,23.31
2022-08-16T19:46:46.533Z,23.19
2022-08-16T19:49:14.988Z,23.07
2022-08-16T19:51:48.723Z,22.96
2022-08-16T19:54:17.838Z,22.85
2022-08-16T19:56:45.810Z,22.78
2022-08-16T19:59:19.871Z,22.69
2022-08-16T20:01:51.997Z,22.54
2022-08-16T20:04:22.137Z,22.49
2022-08-16T20:06:52.571Z,22.41
2022-08-16T20:09:22.532Z,22.34
2022-08-16T20:11:52.367Z,22.26
2022-08-16T20:14:26.083Z,22.18
2022-08-16T20:16:56.119Z,22.21
2022-08-16T20:19:25.213Z,22.23
2022-08-16T20:21:53.775Z,22.18
2022-08-16T20:24:37.008Z,22.10
2022-08-16T20:27:07.673Z,22.10
2022-08-16T20:29:37.094Z,22.00
2022-08-16T20:32:07.543Z,21.96
2022-08-16T20:34:35.920Z,21.87
2022-08-16T20:37:06.442Z,21.79
2022-08-16T20:39:34.636Z,21.67
2022-08-16T20:42:02.866Z,21.57
2022-08-16T20:44:30.684Z,21.51
2022-08-16T20:46:58.731Z,21.44
2022-08-16T20:49:28.411Z,21.44
2022-08-16T20:51:59.544Z,21.40
2022-08-16T20:54:29.666Z,21.35
2022-08-16T20:56:57.870Z,21.32
2022-08-16T20:59:26.292Z,21.35
2022-08-16T21:01:54.948Z,21.28
2022-08-16T21:04:25.561Z,21.21
2022-08-16T21:06:55.095Z,21.17
2022-08-16T21:09:31.363Z,21.09
2022-08-16T21:12:02.237Z,21.07
2022-08-16T21:14:34.038Z,21.11
2022-08-16T21:17:08.436Z,21.20
2022-08-16T21:19:37.142Z,21.27
2022-08-16T21:22:24.815Z,21.23
2022-08-16T21:24:53.162Z,21.15
2022-08-16T21:27:22.445Z,21.09
2022-08-16T21:29:55.685Z,21.03
2022-08-16T21:32:35.131Z,20.93
2022-08-16T21:35:13.373Z,20.95
2022-08-16T21:37:42.483Z,21.07
2022-08-16T21:40:32.366Z,21.18
2022-08-16T21:43:10.094Z,21.11
2022-08-16T21:45:39.196Z,21.00
2022-08-16T21:48:07.906Z,20.89
2022-08-16T21:50:37.596Z,20.82
2022-08-16T21:53:11.076Z,20.77
2022-08-16T21:55:41.127Z,20.66
2022-08-16T21:58:09.498Z,20.62
2022-08-16T22:00:37.849Z,20.60
2022-08-16T22:03:09.904Z,20.69
2022-08-16T22:05:40.338Z,20.62
2022-08-16T22:08:08.775Z,20.58
2022-08-16T22:11:04.923Z,20.57
2022-08-16T22:13:27.177Z,20.54
2022-08-16T22:15:55.953Z,20.56
2022-08-16T22:18:24.809Z,20.59
2022-08-16T22:20:53.771Z,20.49
2022-08-16T22:23:24.281Z,20.40
2022-08-16T22:25:54.305Z,20.37
2022-08-16T22:28:23.890Z,20.35
2022-08-16T22:30:52.083Z,20.34
2022-08-16T22:33:26.389Z,20.31
2022-08-16T22:36:00.788Z,20.28
2022-08-16T22:38:56.363Z,20.33
2022-08-16T22:41:18.411Z,20.26
2022-08-16T22:43:50.229Z,20.36
2022-08-16T22:46:19.661Z,20.31
2022-08-16T22:48:50.675Z,20.23
2022-08-16T22:51:23.805Z,20.20
2022-08-16T22:53:52.801Z,20.18
2022-08-16T22:56:21.486Z,20.25
2022-08-16T22:58:49.270Z,20.29
2022-08-16T23:01:19.428Z,20.38
2022-08-16T23:03:47.853Z,20.33
2022-08-16T23:06:16.355Z,20.40
2022-08-16T23:08:44.886Z,20.40
2022-08-16T23:11:22.841Z,20.26
2022-08-16T23:13:54.396Z,20.21
2022-08-16T23:16:33.731Z,20.12
2022-08-16T23:19:09.183Z,20.06
2022-08-16T23:21:40.830Z,20.01
2022-08-16T23:24:09.456Z,20.07
2022-08-16T23:26:47.641Z,20.09
2022-08-16T23:29:24.313Z,19.98
2022-08-16T23:32:09.977Z,19.95
2022-08-16T23:34:38.363Z,19.92
2022-08-16T23:37:06.788Z,19.96
2022-08-16T23:39:35.883Z,19.97
2022-08-16T23:42:14.649Z,19.87
2022-08-16T23:44:57.684Z,19.83
2022-08-16T23:47:27.120Z,19.76
2022-08-16T23:50:01.062Z,19.76
2022-08-16T23:52:40.575Z,19.85
2022-08-16T23:55:19.717Z,19.81
2022-08-16T23:57:48.032Z,19.82
